Weather at Esmeralda Airport

Public forecast

Using degrees Celsius for public forecast. Weather courtesy of forecast.io.

Closest aviation weather report (METAR) to Esmeralda Airport

Closest report is Ignacio Agramonte International Airport, 29.7 nm (54.9 km) SSE.

2024/04/17 23:50 (retrieved 45 minutes ago)

MUCM 172350Z 03011KT 9000 FEW020 25/19 Q1016

Closest aviation forecast (TAF) to Esmeralda Airport

Forecast is more than 6 hours old.

Closest forecast is Vilo Acuña International Airport, 190.4 nm (352.7 km) W.

2024/04/17 18:00 (retrieved 7 hours ago)

TAF MUCL 171700Z 1718/1806 09012KT 9000 FEW020 BECMG 1802/1803 03014KT